Terminal Aerodrome Forecast
Issued by NWS

Home | Current Version | Previous Version | Text Only | Print | Product List | Glossary On
Versions: 1 2 3 4 5 6 7 8 9 10 11 12 13 14 15 16
000
FTUS41 KGYX 031120
TAFPSM
TAF
KPSM 031120Z 0312/0412 VRB03KT 3SM BR OVC002
      TEMPO 0312/0313 1/2SM FG VV001
     FM031300 16005KT P6SM FEW030 SCT100
     FM031700 15008KT P6SM FEW050
     FM040000 22003KT P6SM SCT200=

USA.gov is the U.S. government's official web portal to all federal, state and local government web resources and services.